Sayward, Canada
Current Conditions -  °F | °C
As of 2:00 PM on Saturday 25 Oct 2014 (Local Time) from CYBL Reporting Station
Light Rain Light Rain  
Wind Chill: 45°   Ceiling: 1100
Heat Index: 45°   Visibility: 7mi
Dew Point: 43°   Wind: 3mph
Humidity: 93%   Direction: 300°WNW
Pressure: 29.39"   Gusts: NA
Location:  50.35°N, 125.92°W
Report Text: CYBL 252100Z 30003KT 7SM -RA FEW007 BKN011 OVC040 07/06 A2939 RMK CF2SC4SC2 SLP955
Loading
Personal Weather Stations






























Interactive Weather Map
Tropical Storm Tracking
New forecast layout! Learn more

10-Day Weather Forecast

Advertisements
Track Severe Weather on mobile